Time;durP1;ratioP1;P1;durP2;ratioP2;P2;SDS_P1;SDS_P2;PMS_P1;PMS_P2;Temp;Humidity;BMP_temperature;BMP_pressure;BME280_temperature;BME280_humidity;BME280_pressure;Samples;Min_cycle;Max_cycle;Signal;HPM_P1;HPM_P2
2023/07/08 00:01:17;;;;;;;9.10;5.53;;;;;;;;;;4990385;28;20267;-79
2023/07/08 00:03:44;;;;;;;8.03;5.30;;;;;;;;;;4973944;28;20633;-80
2023/07/08 00:06:20;;;;;;;9.50;5.90;;;;;;;;;;4991531;28;20193;-79
2023/07/08 00:08:49;;;;;;;12.10;5.47;;;;;;;;;;4990120;28;20259;-80
2023/07/08 00:11:16;;;;;;;8.50;5.53;;;;;;;;;;4991409;28;20624;-81
2023/07/08 00:13:43;;;;;;;7.90;5.27;;;;;;;;;;5008642;28;20228;-81
2023/07/08 00:16:10;;;;;;;9.03;5.43;;;;;;;;;;5010641;28;20280;-81
2023/07/08 00:18:37;;;;;;;6.83;5.23;;;;;;;;;;4992554;28;20203;-81
2023/07/08 00:21:05;;;;;;;10.77;5.90;;;;;;;;;;5010510;28;20275;-81
2023/07/08 00:23:49;;;;;;;12.80;5.53;;;;;;;;;;4996205;28;20373;-81
2023/07/08 00:26:22;;;;;;;10.07;5.20;;;;;;;;;;5009786;28;20218;-81
2023/07/08 00:28:49;;;;;;;12.53;5.50;;;;;;;;;;5010294;28;20682;-81
2023/07/08 00:31:16;;;;;;;7.57;4.60;;;;;;;;;;5010587;28;20665;-81
2023/07/08 00:33:43;;;;;;;6.60;4.83;;;;;;;;;;5011207;28;20196;-82
2023/07/08 00:36:27;;;;;;;9.50;5.13;;;;;;;;;;5009548;28;20183;-81
2023/07/08 00:38:54;;;;;;;8.43;5.03;;;;;;;;;;4992746;28;20253;-81
2023/07/08 00:41:22;;;;;;;7.70;4.87;;;;;;;;;;5009427;28;20188;-81
2023/07/08 00:43:53;;;;;;;7.17;4.70;;;;;;;;;;4993547;28;20286;-81
2023/07/08 00:46:31;;;;;;;8.10;5.10;;;;;;;;;;5009316;28;20662;-81
2023/07/08 00:49:08;;;;;;;7.87;4.80;;;;;;;;;;5011033;28;20188;-84
2023/07/08 00:51:37;;;;;;;7.80;4.80;;;;;;;;;;5009550;28;20601;-81
2023/07/08 01:29:47;;;;;;;7.33;5.77;;;;;;;;;;5009576;28;20191;-80
2023/07/08 01:32:17;;;;;;;8.13;5.00;;;;;;;;;;5009445;28;20184;-79
2023/07/08 01:34:59;;;;;;;11.20;5.33;;;;;;;;;;5008614;28;20560;-80
2023/07/08 01:37:34;;;;;;;8.37;5.00;;;;;;;;;;5008979;28;20739;-80
2023/07/08 01:40:17;;;;;;;6.60;4.77;;;;;;;;;;5007518;28;20294;-80
2023/07/08 01:43:01;;;;;;;6.90;4.73;;;;;;;;;;5008930;28;20200;-80
2023/07/08 01:45:30;;;;;;;7.07;4.73;;;;;;;;;;5009696;28;20187;-79
2023/07/08 01:48:17;;;;;;;7.90;5.17;;;;;;;;;;5003452;28;20592;-79
2023/07/08 01:50:51;;;;;;;8.03;4.67;;;;;;;;;;4998829;28;20707;-80
2023/07/08 01:53:40;;;;;;;10.27;5.13;;;;;;;;;;4994456;28;20210;-80
2023/07/08 01:56:07;;;;;;;7.10;4.80;;;;;;;;;;5008309;28;20197;-80
2023/07/08 01:58:34;;;;;;;7.17;4.70;;;;;;;;;;5008052;28;20192;-80
2023/07/08 02:01:01;;;;;;;7.43;4.90;;;;;;;;;;5007721;28;20203;-81
2023/07/08 02:03:28;;;;;;;5.60;4.50;;;;;;;;;;4990280;28;20227;-81
2023/07/08 02:05:55;;;;;;;7.47;5.30;;;;;;;;;;5009490;28;20223;-81
2023/07/08 02:08:23;;;;;;;7.00;5.40;;;;;;;;;;5012800;28;20231;-81
2023/07/08 02:10:51;;;;;;;9.70;5.47;;;;;;;;;;4995185;28;20545;-81
2023/07/08 02:13:19;;;;;;;7.23;4.80;;;;;;;;;;5012814;28;20567;-81
2023/07/08 02:15:47;;;;;;;8.13;5.10;;;;;;;;;;5013028;28;20293;-81
2023/07/08 02:18:14;;;;;;;7.67;5.40;;;;;;;;;;5012179;28;20212;-81
2023/07/08 02:21:00;;;;;;;6.77;5.00;;;;;;;;;;5012386;28;20180;-81
2023/07/08 02:23:27;;;;;;;8.33;4.90;;;;;;;;;;5012158;28;20223;-81
2023/07/08 02:26:12;;;;;;;8.33;5.00;;;;;;;;;;5012705;28;20184;-80
2023/07/08 02:28:39;;;;;;;8.00;5.23;;;;;;;;;;4991780;28;20259;-80
2023/07/08 02:31:24;;;;;;;7.90;4.70;;;;;;;;;;4993011;28;20204;-80
2023/07/08 02:33:51;;;;;;;5.97;4.70;;;;;;;;;;4994038;28;20220;-79
2023/07/08 02:36:18;;;;;;;7.77;5.30;;;;;;;;;;4992962;28;20193;-80
2023/07/08 02:38:45;;;;;;;7.47;5.03;;;;;;;;;;4992581;28;20288;-79
2023/07/08 02:41:11;;;;;;;7.57;5.73;;;;;;;;;;5008202;28;20270;-80
2023/07/08 02:43:56;;;;;;;8.93;5.37;;;;;;;;;;4998452;28;20215;-80
2023/07/08 02:46:22;;;;;;;7.60;5.17;;;;;;;;;;5009745;28;20216;-80
2023/07/08 02:48:50;;;;;;;10.43;5.17;;;;;;;;;;5013159;28;20200;-80
2023/07/08 02:51:16;;;;;;;6.57;4.57;;;;;;;;;;5012178;28;20634;-81
2023/07/08 02:53:43;;;;;;;7.57;5.67;;;;;;;;;;4995228;28;20210;-80
2023/07/08 02:56:28;;;;;;;8.67;5.50;;;;;;;;;;5011914;28;20176;-81
2023/07/08 02:58:54;;;;;;;8.40;5.27;;;;;;;;;;5011789;28;20287;-80
2023/07/08 03:01:23;;;;;;;7.30;5.30;;;;;;;;;;5013163;28;20204;-80
2023/07/08 03:03:50;;;;;;;7.80;5.10;;;;;;;;;;5012045;28;20215;-80
2023/07/08 03:06:17;;;;;;;6.23;4.87;;;;;;;;;;5010562;28;20542;-81
2023/07/08 03:08:43;;;;;;;7.03;5.40;;;;;;;;;;5012827;28;20188;-80
2023/07/08 03:11:10;;;;;;;8.10;5.40;;;;;;;;;;5011253;28;20253;-80
2023/07/08 03:13:37;;;;;;;7.37;4.63;;;;;;;;;;5011568;28;20222;-80
2023/07/08 03:16:12;;;;;;;9.20;4.83;;;;;;;;;;5010049;28;20193;-81
2023/07/08 03:18:45;;;;;;;7.97;4.70;;;;;;;;;;5012043;28;20207;-81
2023/07/08 03:21:14;;;;;;;6.33;4.80;;;;;;;;;;5011367;28;20203;-80
2023/07/08 03:23:40;;;;;;;9.10;5.60;;;;;;;;;;5009381;28;20250;-81
2023/07/08 03:26:13;;;;;;;10.07;5.93;;;;;;;;;;5009625;28;20230;-80
2023/07/08 03:28:40;;;;;;;6.20;5.03;;;;;;;;;;5011599;28;20192;-82
2023/07/08 03:31:08;;;;;;;8.13;4.97;;;;;;;;;;5010929;28;20537;-80
2023/07/08 03:33:36;;;;;;;8.93;5.40;;;;;;;;;;4995357;28;20235;-81
2023/07/08 03:36:23;;;;;;;7.77;4.80;;;;;;;;;;4997266;28;20212;-80
2023/07/08 03:38:51;;;;;;;10.23;5.00;;;;;;;;;;4993579;28;20673;-79
2023/07/08 03:41:18;;;;;;;9.33;4.77;;;;;;;;;;5010409;28;20196;-79
2023/07/08 03:43:45;;;;;;;7.83;4.87;;;;;;;;;;4993853;28;20232;-79
2023/07/08 03:46:14;;;;;;;6.10;4.57;;;;;;;;;;5012038;28;20294;-79
2023/07/08 03:48:41;;;;;;;7.87;4.83;;;;;;;;;;4994655;28;20193;-79
2023/07/08 03:51:13;;;;;;;6.40;5.13;;;;;;;;;;4989778;28;20228;-79
2023/07/08 03:53:39;;;;;;;5.90;4.80;;;;;;;;;;4991096;28;20197;-79
2023/07/08 03:56:08;;;;;;;7.57;5.10;;;;;;;;;;4974710;28;20609;-79
2023/07/08 03:58:34;;;;;;;6.37;4.87;;;;;;;;;;4993933;28;20758;-79
2023/07/08 04:01:01;;;;;;;7.97;5.53;;;;;;;;;;5010277;28;20202;-79
2023/07/08 04:03:29;;;;;;;10.27;5.70;;;;;;;;;;5008572;28;20228;-78
2023/07/08 04:05:56;;;;;;;7.93;5.20;;;;;;;;;;5011311;28;20275;-79
2023/07/08 04:08:25;;;;;;;9.20;5.50;;;;;;;;;;5010210;28;20418;-78
2023/07/08 04:10:52;;;;;;;7.67;5.80;;;;;;;;;;5009883;28;20563;-79
2023/07/08 04:13:19;;;;;;;8.60;5.47;;;;;;;;;;5011450;28;20196;-78
2023/07/08 04:15:49;;;;;;;11.40;5.67;;;;;;;;;;5009660;28;20684;-79
2023/07/08 04:18:16;;;;;;;8.77;5.13;;;;;;;;;;5010250;28;20559;-78
2023/07/08 04:20:42;;;;;;;11.17;5.90;;;;;;;;;;5010654;28;20765;-78
2023/07/08 04:23:29;;;;;;;8.93;5.30;;;;;;;;;;5009161;28;20294;-78
2023/07/08 04:26:13;;;;;;;7.03;5.63;;;;;;;;;;5010989;28;20663;-79
2023/07/08 04:28:41;;;;;;;8.77;5.47;;;;;;;;;;5008657;28;20196;-79
2023/07/08 04:31:07;;;;;;;9.47;5.43;;;;;;;;;;5007556;28;20769;-78
2023/07/08 04:33:34;;;;;;;10.30;5.13;;;;;;;;;;5010723;28;20683;-79
2023/07/08 04:36:01;;;;;;;11.63;5.63;;;;;;;;;;5009204;28;20924;-78
2023/07/08 04:38:28;;;;;;;11.47;5.37;;;;;;;;;;5009375;28;20224;-78
2023/07/08 04:40:54;;;;;;;9.90;5.70;;;;;;;;;;5010978;28;20243;-76
2023/07/08 04:43:21;;;;;;;13.50;6.03;;;;;;;;;;5008918;28;20223;-78
2023/07/08 04:45:52;;;;;;;10.03;5.70;;;;;;;;;;5009491;28;20673;-78
2023/07/08 04:48:21;;;;;;;11.07;5.90;;;;;;;;;;4992279;28;20196;-78
2023/07/08 04:50:48;;;;;;;9.10;5.83;;;;;;;;;;5008854;28;20224;-78
2023/07/08 04:53:15;;;;;;;8.40;5.50;;;;;;;;;;5009324;28;20215;-78
2023/07/08 04:55:50;;;;;;;11.40;5.40;;;;;;;;;;5008628;28;20200;-78
2023/07/08 04:58:35;;;;;;;8.53;5.17;;;;;;;;;;5010354;28;20575;-78
2023/07/08 05:01:02;;;;;;;7.77;5.30;;;;;;;;;;5010077;28;20208;-78
2023/07/08 05:03:28;;;;;;;7.60;4.90;;;;;;;;;;5010030;28;20223;-79
2023/07/08 05:05:55;;;;;;;6.90;4.43;;;;;;;;;;5006712;28;20197;-78
2023/07/08 05:08:22;;;;;;;6.20;4.60;;;;;;;;;;4984542;28;20200;-76
2023/07/08 05:10:49;;;;;;;8.57;4.47;;;;;;;;;;5007469;28;20733;-76
2023/07/08 05:13:20;;;;;;;5.87;3.83;;;;;;;;;;5008385;28;20952;-77
2023/07/08 05:15:48;;;;;;;5.83;3.87;;;;;;;;;;5007564;28;20195;-77
2023/07/08 05:18:15;;;;;;;7.40;3.80;;;;;;;;;;4986918;28;20193;-79
2023/07/08 05:20:43;;;;;;;6.10;3.50;;;;;;;;;;4988545;28;20208;-78
2023/07/08 05:23:09;;;;;;;6.43;4.10;;;;;;;;;;5008487;28;20793;-76
2023/07/08 05:25:36;;;;;;;5.10;3.40;;;;;;;;;;5006293;28;20247;-77
2023/07/08 05:28:03;;;;;;;4.93;3.40;;;;;;;;;;5004721;28;20192;-74
2023/07/08 05:30:30;;;;;;;6.53;3.10;;;;;;;;;;5007426;28;20279;-77
2023/07/08 05:32:59;;;;;;;5.73;2.40;;;;;;;;;;5005341;28;20763;-76
2023/07/08 05:35:25;;;;;;;6.37;3.10;;;;;;;;;;5006500;28;20200;-81
2023/07/08 05:37:52;;;;;;;3.17;2.17;;;;;;;;;;5009093;28;20201;-79
2023/07/08 05:40:19;;;;;;;4.50;2.17;;;;;;;;;;5009844;28;20445;-77
2023/07/08 05:42:46;;;;;;;4.37;2.20;;;;;;;;;;5005765;28;20207;-80
2023/07/08 05:45:13;;;;;;;2.90;2.03;;;;;;;;;;4988301;28;20208;-79
2023/07/08 05:47:40;;;;;;;4.43;2.10;;;;;;;;;;4986223;28;20207;-77
2023/07/08 05:50:07;;;;;;;3.10;2.20;;;;;;;;;;4990173;28;20303;-75
2023/07/08 05:52:33;;;;;;;3.33;2.07;;;;;;;;;;5008047;28;20184;-76
2023/07/08 05:55:00;;;;;;;4.10;1.80;;;;;;;;;;5005440;28;20295;-76
2023/07/08 05:57:27;;;;;;;3.03;1.70;;;;;;;;;;4990128;28;21670;-77
2023/07/08 05:59:57;;;;;;;4.47;1.63;;;;;;;;;;4999793;28;20204;-76
2023/07/08 06:02:25;;;;;;;3.40;1.50;;;;;;;;;;4998226;28;20192;-72
2023/07/08 06:04:53;;;;;;;3.43;1.60;;;;;;;;;;5005863;28;20211;-75
2023/07/08 06:07:20;;;;;;;3.10;1.57;;;;;;;;;;4998745;28;20958;-75
2023/07/08 06:09:47;;;;;;;3.47;1.40;;;;;;;;;;5005851;28;20258;-76
2023/07/08 06:12:14;;;;;;;2.87;1.70;;;;;;;;;;5008145;28;20683;-74
2023/07/08 06:14:41;;;;;;;3.27;1.70;;;;;;;;;;5003343;28;20199;-75
2023/07/08 06:17:08;;;;;;;3.40;1.43;;;;;;;;;;4992612;28;20208;-76
2023/07/08 06:19:35;;;;;;;3.33;1.43;;;;;;;;;;4970974;28;20308;-74
2023/07/08 06:22:03;;;;;;;3.40;1.70;;;;;;;;;;5000232;28;20863;-75
2023/07/08 06:24:48;;;;;;;2.57;1.60;;;;;;;;;;5008274;28;20297;-79
2023/07/08 06:27:15;;;;;;;2.90;1.50;;;;;;;;;;5009140;28;20656;-80
2023/07/08 06:29:42;;;;;;;2.03;1.50;;;;;;;;;;5006871;28;20202;-78
2023/07/08 06:32:09;;;;;;;4.03;1.40;;;;;;;;;;5004489;28;20189;-78
2023/07/08 06:34:36;;;;;;;3.17;1.70;;;;;;;;;;5008453;28;20192;-78
2023/07/08 06:37:03;;;;;;;4.37;2.17;;;;;;;;;;4992058;28;20192;-77
2023/07/08 06:39:31;;;;;;;3.13;1.50;;;;;;;;;;4999903;28;20191;-80
2023/07/08 06:41:58;;;;;;;2.10;1.63;;;;;;;;;;4996876;28;20214;-77
2023/07/08 06:44:54;;;;;;;3.13;2.00;;;;;;;;;;5005957;28;20695;-79
2023/07/08 06:47:22;;;;;;;2.77;1.80;;;;;;;;;;5007513;28;20212;-74
2023/07/08 06:49:48;;;;;;;2.17;1.50;;;;;;;;;;5005118;28;20247;-78
2023/07/08 06:52:15;;;;;;;3.97;2.20;;;;;;;;;;4999179;28;20255;-77
2023/07/08 06:54:42;;;;;;;5.00;2.10;;;;;;;;;;5009098;28;20946;-78
2023/07/08 06:57:09;;;;;;;4.03;2.00;;;;;;;;;;4996014;28;20312;-78
2023/07/08 06:59:37;;;;;;;3.67;1.90;;;;;;;;;;4991666;28;20259;-78
2023/07/08 07:02:04;;;;;;;3.13;1.60;;;;;;;;;;5004397;28;20204;-78
2023/07/08 07:04:32;;;;;;;3.37;1.97;;;;;;;;;;5009542;28;20208;-78
2023/07/08 07:06:59;;;;;;;2.83;2.30;;;;;;;;;;4998912;28;20220;-79
2023/07/08 07:09:25;;;;;;;4.40;2.10;;;;;;;;;;5011374;28;20543;-80
2023/07/08 07:11:53;;;;;;;3.37;1.83;;;;;;;;;;5013085;28;20196;-79
2023/07/08 07:14:20;;;;;;;9.83;2.60;;;;;;;;;;5012095;28;20292;-76
2023/07/08 07:16:50;;;;;;;3.97;2.20;;;;;;;;;;5006844;28;20208;-78
2023/07/08 07:19:36;;;;;;;13.67;2.87;;;;;;;;;;5012616;28;20740;-75
2023/07/08 07:22:03;;;;;;;5.30;2.47;;;;;;;;;;5012276;28;20276;-79
2023/07/08 07:24:48;;;;;;;5.00;2.13;;;;;;;;;;4998739;28;20208;-78
2023/07/08 07:27:15;;;;;;;4.13;2.20;;;;;;;;;;5010243;28;20208;-78
2023/07/08 07:30:02;;;;;;;4.80;2.00;;;;;;;;;;4992089;28;20173;-78
2023/07/08 07:32:31;;;;;;;4.30;2.00;;;;;;;;;;4986918;28;20242;-76
2023/07/08 07:34:59;;;;;;;3.30;1.73;;;;;;;;;;5011355;28;20275;-78
2023/07/08 07:37:26;;;;;;;4.00;2.00;;;;;;;;;;5002863;28;20227;-76
2023/07/08 07:39:53;;;;;;;6.27;1.97;;;;;;;;;;4991574;28;20216;-79
2023/07/08 07:42:39;;;;;;;10.13;2.83;;;;;;;;;;4988820;28;20177;-64
2023/07/08 07:45:06;;;;;;;3.87;2.10;;;;;;;;;;4990825;28;20223;-65
2023/07/08 07:47:33;;;;;;;2.93;1.90;;;;;;;;;;4984826;28;20229;-65
2023/07/08 07:50:02;;;;;;;4.80;1.93;;;;;;;;;;4992452;28;20739;-65
2023/07/08 07:52:29;;;;;;;4.93;2.07;;;;;;;;;;4992972;28;20189;-65
2023/07/08 07:54:56;;;;;;;4.73;2.27;;;;;;;;;;4984579;28;20192;-65
2023/07/08 07:57:24;;;;;;;5.67;2.20;;;;;;;;;;4991576;28;20200;-65
2023/07/08 07:59:51;;;;;;;4.00;2.20;;;;;;;;;;4974760;28;20996;-63
2023/07/08 08:02:43;;;;;;;5.23;2.17;;;;;;;;;;4991882;28;20268;-63
2023/07/08 08:05:10;;;;;;;4.10;2.20;;;;;;;;;;4990548;28;20236;-63
2023/07/08 08:07:37;;;;;;;3.07;2.10;;;;;;;;;;4992526;28;20231;-63
2023/07/08 08:10:04;;;;;;;5.70;2.23;;;;;;;;;;4988940;28;20600;-63
2023/07/08 08:12:30;;;;;;;13.67;2.70;;;;;;;;;;4991881;28;20595;-63
2023/07/08 08:15:17;;;;;;;16.90;2.93;;;;;;;;;;4992028;28;20192;-62
2023/07/08 08:17:48;;;;;;;6.40;2.10;;;;;;;;;;4990937;28;20395;-62
2023/07/08 08:20:16;;;;;;;8.20;2.33;;;;;;;;;;4991330;28;20201;-62
2023/07/08 08:22:43;;;;;;;17.00;3.37;;;;;;;;;;4982001;28;20189;-62
2023/07/08 08:25:10;;;;;;;3.77;2.20;;;;;;;;;;4989620;28;20222;-67
2023/07/08 08:27:54;;;;;;;14.47;2.77;;;;;;;;;;4988617;28;20172;-67
2023/07/08 08:30:21;;;;;;;5.73;2.27;;;;;;;;;;4988999;28;20200;-67
2023/07/08 08:32:48;;;;;;;4.33;1.93;;;;;;;;;;4990067;28;20223;-67
2023/07/08 08:35:15;;;;;;;11.20;2.47;;;;;;;;;;4988815;28;20193;-66
2023/07/08 08:37:42;;;;;;;4.77;2.10;;;;;;;;;;4988667;28;20193;-68
2023/07/08 08:40:16;;;;;;;3.53;2.27;;;;;;;;;;4987750;28;20270;-67
2023/07/08 08:42:53;;;;;;;4.10;2.10;;;;;;;;;;4980500;28;20213;-67
2023/07/08 08:45:20;;;;;;;3.83;2.30;;;;;;;;;;4967235;28;20231;-67
2023/07/08 08:47:49;;;;;;;4.37;2.00;;;;;;;;;;4982150;28;20200;-68
2023/07/08 08:50:17;;;;;;;4.77;2.10;;;;;;;;;;4986728;28;20229;-68
2023/07/08 08:52:44;;;;;;;4.83;2.10;;;;;;;;;;4989057;28;20217;-67
2023/07/08 08:55:13;;;;;;;15.07;2.67;;;;;;;;;;4987694;28;20200;-67
2023/07/08 08:57:41;;;;;;;4.53;2.30;;;;;;;;;;4989003;28;21102;-68
2023/07/08 09:00:09;;;;;;;8.57;2.30;;;;;;;;;;5004194;28;20201;-68
2023/07/08 09:02:36;;;;;;;5.40;2.10;;;;;;;;;;4988713;28;20657;-67
2023/07/08 09:05:05;;;;;;;20.60;2.90;;;;;;;;;;4988088;28;20217;-67
2023/07/08 09:07:33;;;;;;;11.53;2.50;;;;;;;;;;4987191;28;20195;-68
2023/07/08 09:10:04;;;;;;;6.83;2.50;;;;;;;;;;4984198;28;20232;-67
2023/07/08 09:12:31;;;;;;;3.70;1.83;;;;;;;;;;4985877;28;20224;-68
2023/07/08 09:15:16;;;;;;;5.90;1.90;;;;;;;;;;4971616;28;20605;-68
2023/07/08 09:17:42;;;;;;;4.17;2.07;;;;;;;;;;4986121;28;20256;-67
2023/07/08 09:20:29;;;;;;;7.70;3.10;;;;;;;;;;4983729;28;20180;-65
2023/07/08 09:22:58;;;;;;;12.30;4.10;;;;;;;;;;4986817;28;20215;-67
2023/07/08 09:25:28;;;;;;;3.63;2.13;;;;;;;;;;4988332;28;20212;-66
2023/07/08 09:27:55;;;;;;;5.73;2.07;;;;;;;;;;4987172;28;20243;-67
2023/07/08 09:30:22;;;;;;;11.80;3.87;;;;;;;;;;4985374;28;20208;-67
2023/07/08 09:32:49;;;;;;;5.80;2.43;;;;;;;;;;4987093;28;20203;-67
2023/07/08 09:35:21;;;;;;;17.80;4.33;;;;;;;;;;4986747;28;20219;-66
2023/07/08 09:37:50;;;;;;;5.70;2.47;;;;;;;;;;4986021;28;20943;-64
2023/07/08 09:40:18;;;;;;;4.73;2.13;;;;;;;;;;4986133;28;20204;-64
2023/07/08 09:42:51;;;;;;;11.07;3.47;;;;;;;;;;4987200;28;20630;-68
2023/07/08 09:45:22;;;;;;;121.53;9.80;;;;;;;;;;4988339;28;20197;-69
2023/07/08 09:47:52;;;;;;;6.83;2.70;;;;;;;;;;4985888;28;20196;-64
2023/07/08 09:50:20;;;;;;;6.00;2.67;;;;;;;;;;4986586;28;20259;-68
2023/07/08 09:52:48;;;;;;;4.17;2.23;;;;;;;;;;4982714;28;20197;-68
2023/07/08 09:55:14;;;;;;;11.33;3.90;;;;;;;;;;4984966;28;20189;-68
2023/07/08 09:57:42;;;;;;;36.07;9.20;;;;;;;;;;4985210;28;21026;-67
2023/07/08 10:00:17;;;;;;;4.37;2.43;;;;;;;;;;4982997;28;20219;-68
2023/07/08 10:03:21;;;;;;;4.83;2.20;;;;;;;;;;4982395;28;20196;-63
2023/07/08 10:05:51;;;;;;;7.20;2.33;;;;;;;;;;4984060;28;20227;-63
2023/07/08 10:08:19;;;;;;;5.87;2.53;;;;;;;;;;4981198;28;20208;-61
2023/07/08 10:11:31;;;;;;;7.50;2.70;;;;;;;;;;4986310;28;20217;-63
2023/07/08 10:14:08;;;;;;;5.00;2.40;;;;;;;;;;4976029;28;20201;-62
2023/07/08 10:16:44;;;;;;;4.53;2.40;;;;;;;;;;4985463;28;20240;-63
2023/07/08 10:19:15;;;;;;;10.33;3.00;;;;;;;;;;4989519;28;20191;-65
2023/07/08 10:22:04;;;;;;;12.07;3.20;;;;;;;;;;4966835;28;20720;-59
2023/07/08 10:25:02;;;;;;;7.67;2.80;;;;;;;;;;4963201;28;20223;-63
2023/07/08 10:27:40;;;;;;;3.93;3.07;;;;;;;;;;4967311;28;20212;-66
2023/07/08 10:30:08;;;;;;;7.27;3.30;;;;;;;;;;4986286;28;20872;-64
2023/07/08 10:33:00;;;;;;;4.07;2.60;;;;;;;;;;4991240;28;20274;-71
2023/07/08 10:35:31;;;;;;;5.07;2.50;;;;;;;;;;4991320;28;20287;-69
2023/07/08 10:38:19;;;;;;;22.53;3.67;;;;;;;;;;4974707;28;20232;-69
2023/07/08 10:40:50;;;;;;;4.33;2.30;;;;;;;;;;4933413;28;20314;-64
2023/07/08 10:51:08;;;;;;;2.50;1.90;;;;;;;;;;4971176;28;20242;-67
2023/07/08 10:57:47;;;;;;;3.77;2.20;;;;;;;;;;4989629;28;20201;-66
2023/07/08 11:00:23;;;;;;;8.00;2.00;;;;;;;;;;4991025;28;20273;-67
2023/07/08 11:02:56;;;;;;;2.97;1.90;;;;;;;;;;4990857;28;20556;-68
2023/07/08 11:05:31;;;;;;;3.83;2.07;;;;;;;;;;4988973;28;20762;-66
2023/07/08 11:08:08;;;;;;;3.53;2.00;;;;;;;;;;4991163;28;20207;-67
2023/07/08 11:10:38;;;;;;;3.27;1.90;;;;;;;;;;4974044;28;20197;-67
2023/07/08 11:13:06;;;;;;;2.90;2.10;;;;;;;;;;4990443;28;20211;-67
2023/07/08 11:15:33;;;;;;;3.40;2.07;;;;;;;;;;4976049;28;20716;-67
2023/07/08 11:18:05;;;;;;;3.93;1.97;;;;;;;;;;4989276;28;20208;-67
2023/07/08 11:20:37;;;;;;;3.63;1.77;;;;;;;;;;4990704;28;20689;-67
2023/07/08 11:23:06;;;;;;;4.03;1.90;;;;;;;;;;4988784;28;20229;-68
2023/07/08 11:25:33;;;;;;;4.43;1.90;;;;;;;;;;4990933;28;20688;-67
2023/07/08 11:28:00;;;;;;;3.40;1.77;;;;;;;;;;4990396;28;20200;-67
2023/07/08 11:30:29;;;;;;;3.33;1.93;;;;;;;;;;4989193;28;20691;-67
2023/07/08 11:33:00;;;;;;;3.83;2.00;;;;;;;;;;4989629;28;20193;-68
2023/07/08 11:35:33;;;;;;;3.27;1.70;;;;;;;;;;4973483;28;20190;-68
2023/07/08 11:38:19;;;;;;;2.10;1.63;;;;;;;;;;4960426;28;20182;-66
2023/07/08 11:41:09;;;;;;;4.10;2.13;;;;;;;;;;4989951;28;20198;-67
2023/07/08 11:43:43;;;;;;;3.30;1.90;;;;;;;;;;4985358;28;20272;-68
2023/07/08 11:46:12;;;;;;;2.20;1.67;;;;;;;;;;4990187;28;20300;-67
2023/07/08 11:48:40;;;;;;;2.33;1.60;;;;;;;;;;4972642;28;20193;-68
2023/07/08 11:51:07;;;;;;;2.20;1.53;;;;;;;;;;4972271;28;20256;-66
2023/07/08 11:53:35;;;;;;;2.57;1.50;;;;;;;;;;4972812;28;20272;-68
2023/07/08 11:56:07;;;;;;;2.07;1.60;;;;;;;;;;4987106;28;20203;-68
2023/07/08 11:58:52;;;;;;;3.37;1.80;;;;;;;;;;4990098;28;20192;-68
2023/07/08 12:02:00;;;;;;;2.43;1.33;;;;;;;;;;4990245;28;20196;-67
2023/07/08 12:04:32;;;;;;;2.43;1.50;;;;;;;;;;4978081;28;20197;-68
2023/07/08 12:07:03;;;;;;;2.13;1.30;;;;;;;;;;4988213;28;20185;-67
2023/07/08 12:09:35;;;;;;;1.47;1.20;;;;;;;;;;4990023;28;20189;-68
2023/07/08 12:12:03;;;;;;;2.90;1.40;;;;;;;;;;4985676;28;20196;-67
2023/07/08 12:14:31;;;;;;;3.43;1.43;;;;;;;;;;4971608;28;20188;-68
2023/07/08 12:16:58;;;;;;;2.37;1.20;;;;;;;;;;4989960;28;20220;-68
2023/07/08 12:19:25;;;;;;;2.60;1.13;;;;;;;;;;4988104;28;20708;-68
2023/07/08 12:21:55;;;;;;;2.27;1.23;;;;;;;;;;4972858;28;20280;-69
2023/07/08 12:24:26;;;;;;;3.57;1.30;;;;;;;;;;4955757;28;20207;-68
2023/07/08 12:26:53;;;;;;;1.50;1.10;;;;;;;;;;4989470;28;20224;-68
2023/07/08 12:29:20;;;;;;;4.10;2.03;;;;;;;;;;4974371;28;20209;-67
2023/07/08 12:31:46;;;;;;;1.83;1.00;;;;;;;;;;4988428;28;20227;-68
2023/07/08 12:34:14;;;;;;;3.93;2.33;;;;;;;;;;4989170;28;20661;-67
2023/07/08 12:36:41;;;;;;;1.83;1.60;;;;;;;;;;4988583;28;20188;-68
2023/07/08 12:39:08;;;;;;;2.57;1.00;;;;;;;;;;4965997;28;20732;-66
2023/07/08 12:41:35;;;;;;;1.77;1.20;;;;;;;;;;4967429;28;20276;-68
2023/07/08 12:44:08;;;;;;;5.13;1.63;;;;;;;;;;4988432;28;20778;-69
2023/07/08 12:46:35;;;;;;;3.37;1.43;;;;;;;;;;4985437;28;20224;-67
2023/07/08 12:49:01;;;;;;;2.50;1.00;;;;;;;;;;4985216;28;20219;-68
2023/07/08 12:51:28;;;;;;;1.43;1.03;;;;;;;;;;4986461;28;20228;-68
2023/07/08 12:53:56;;;;;;;2.53;0.80;;;;;;;;;;4988777;28;20189;-68
2023/07/08 12:56:23;;;;;;;2.30;1.10;;;;;;;;;;4988584;28;20232;-68
2023/07/08 12:58:50;;;;;;;2.27;1.90;;;;;;;;;;4971799;28;20266;-68
2023/07/08 13:01:18;;;;;;;2.10;1.30;;;;;;;;;;4970035;28;20237;-67
2023/07/08 13:03:47;;;;;;;1.92;1.02;;;;;;;;;;4987405;28;20491;-68
2023/07/08 13:06:15;;;;;;;3.27;1.30;;;;;;;;;;4971829;28;20565;-67
2023/07/08 13:08:42;;;;;;;4.23;2.43;;;;;;;;;;4970212;28;20277;-68
2023/07/08 13:11:08;;;;;;;1.87;1.10;;;;;;;;;;4971203;28;20251;-67
2023/07/08 13:13:36;;;;;;;2.67;1.17;;;;;;;;;;4988965;28;20216;-68
2023/07/08 13:16:06;;;;;;;2.10;1.00;;;;;;;;;;4987002;28;20196;-68
2023/07/08 13:18:51;;;;;;;2.80;1.03;;;;;;;;;;4971539;28;20721;-67
2023/07/08 13:21:17;;;;;;;1.77;1.47;;;;;;;;;;4987516;28;20189;-68
2023/07/08 13:23:44;;;;;;;1.83;0.90;;;;;;;;;;4970798;28;20190;-68
2023/07/08 13:26:14;;;;;;;2.17;1.27;;;;;;;;;;4971242;28;20635;-68
2023/07/08 13:28:44;;;;;;;4.67;1.73;;;;;;;;;;4988516;28;20998;-68
2023/07/08 13:31:21;;;;;;;6.93;3.87;;;;;;;;;;4986033;28;20218;-69
2023/07/08 13:33:51;;;;;;;3.47;1.30;;;;;;;;;;4987128;28;20200;-68
2023/07/08 13:36:21;;;;;;;4.03;1.30;;;;;;;;;;4985628;28;20198;-68
2023/07/08 13:38:48;;;;;;;1.83;1.20;;;;;;;;;;4985943;28;20344;-69
2023/07/08 13:41:19;;;;;;;2.03;1.13;;;;;;;;;;4988262;28;20187;-68
2023/07/08 13:43:46;;;;;;;2.30;1.47;;;;;;;;;;4969519;28;20564;-68
2023/07/08 13:46:32;;;;;;;2.23;1.10;;;;;;;;;;4985022;28;20216;-68
2023/07/08 13:49:07;;;;;;;2.33;1.10;;;;;;;;;;4985146;28;20336;-67
2023/07/08 13:51:34;;;;;;;1.83;1.00;;;;;;;;;;4969871;28;20720;-69
2023/07/08 13:54:07;;;;;;;3.23;1.20;;;;;;;;;;4987888;28;20309;-70
2023/07/08 13:56:34;;;;;;;1.70;1.20;;;;;;;;;;4969679;28;20267;-68
2023/07/08 13:59:05;;;;;;;2.47;0.90;;;;;;;;;;4970628;28;20199;-68
2023/07/08 14:01:33;;;;;;;2.33;1.30;;;;;;;;;;4988409;28;20203;-68
2023/07/08 14:04:02;;;;;;;2.80;1.17;;;;;;;;;;4990689;28;20188;-69
2023/07/08 14:06:30;;;;;;;3.47;1.13;;;;;;;;;;4990392;28;20226;-69
2023/07/08 14:08:58;;;;;;;3.97;1.60;;;;;;;;;;4992233;28;20198;-69
2023/07/08 14:11:28;;;;;;;2.70;1.20;;;;;;;;;;4972497;28;20816;-68
2023/07/08 14:13:54;;;;;;;2.07;1.20;;;;;;;;;;4985933;28;20195;-67
2023/07/08 14:16:25;;;;;;;3.17;1.27;;;;;;;;;;4956056;28;20336;-67
2023/07/08 14:18:52;;;;;;;2.70;1.00;;;;;;;;;;4976617;28;20589;-67
2023/07/08 14:21:19;;;;;;;3.77;1.60;;;;;;;;;;4982333;28;20189;-68
2023/07/08 14:23:46;;;;;;;3.27;1.80;;;;;;;;;;4989574;28;20270;-69
2023/07/08 14:26:13;;;;;;;2.47;1.10;;;;;;;;;;4991575;28;20235;-69
2023/07/08 14:28:40;;;;;;;1.67;1.00;;;;;;;;;;4974367;28;20203;-68
2023/07/08 14:31:08;;;;;;;2.43;1.50;;;;;;;;;;4973832;28;20552;-67
2023/07/08 14:33:35;;;;;;;2.97;1.20;;;;;;;;;;4987013;28;20275;-67
2023/07/08 14:36:02;;;;;;;3.37;1.20;;;;;;;;;;4996772;28;20201;-68
2023/07/08 14:38:29;;;;;;;2.67;1.57;;;;;;;;;;4991711;28;20204;-67
2023/07/08 14:40:56;;;;;;;2.63;1.40;;;;;;;;;;4988691;28;20228;-67
2023/07/08 14:43:24;;;;;;;3.70;1.40;;;;;;;;;;4988120;28;20197;-67
2023/07/08 14:45:52;;;;;;;6.63;1.50;;;;;;;;;;4973202;28;20257;-67
2023/07/08 14:48:18;;;;;;;2.53;1.40;;;;;;;;;;4990373;28;20193;-67
2023/07/08 14:50:45;;;;;;;3.60;1.60;;;;;;;;;;4983336;28;20221;-67
2023/07/08 14:53:15;;;;;;;3.23;1.50;;;;;;;;;;4991803;28;20189;-68
2023/07/08 14:55:46;;;;;;;3.50;1.60;;;;;;;;;;4989515;28;20248;-68
2023/07/08 14:58:17;;;;;;;2.53;1.47;;;;;;;;;;4986714;28;20213;-68
2023/07/08 15:00:44;;;;;;;3.63;1.23;;;;;;;;;;4992129;28;20193;-68
2023/07/08 15:03:11;;;;;;;3.10;1.30;;;;;;;;;;4990675;28;20185;-64
2023/07/08 15:05:38;;;;;;;2.57;1.40;;;;;;;;;;4992083;28;20213;-65
2023/07/08 15:08:05;;;;;;;3.60;1.33;;;;;;;;;;4993004;28;20196;-63
2023/07/08 15:10:32;;;;;;;2.00;1.30;;;;;;;;;;4991879;28;20295;-64
2023/07/08 15:12:59;;;;;;;3.00;1.20;;;;;;;;;;4976958;28;20272;-64
2023/07/08 15:15:30;;;;;;;2.93;1.30;;;;;;;;;;4989912;28;20329;-64
2023/07/08 15:17:57;;;;;;;2.20;1.30;;;;;;;;;;4990253;28;20197;-64
2023/07/08 15:20:24;;;;;;;2.57;1.40;;;;;;;;;;4992303;28;20252;-65
2023/07/08 15:22:51;;;;;;;2.47;1.30;;;;;;;;;;4985635;28;20247;-63
2023/07/08 15:25:17;;;;;;;2.10;1.30;;;;;;;;;;4989582;28;20589;-64
2023/07/08 15:27:45;;;;;;;2.93;1.50;;;;;;;;;;4990617;28;20545;-65
2023/07/08 15:30:16;;;;;;;2.77;1.37;;;;;;;;;;4990458;28;20264;-64
2023/07/08 15:32:43;;;;;;;3.13;1.10;;;;;;;;;;4989857;28;20192;-65
2023/07/08 15:35:17;;;;;;;3.17;1.23;;;;;;;;;;4977514;28;20770;-64
2023/07/08 15:37:44;;;;;;;2.73;1.50;;;;;;;;;;4993651;28;20253;-66
2023/07/08 15:40:12;;;;;;;3.80;1.20;;;;;;;;;;4990823;28;20212;-64
2023/07/08 15:42:39;;;;;;;3.37;1.20;;;;;;;;;;4993238;28;20205;-64
2023/07/08 15:45:18;;;;;;;2.73;1.40;;;;;;;;;;4975205;28;20649;-64
2023/07/08 15:47:44;;;;;;;5.10;1.30;;;;;;;;;;4982747;28;20236;-65